Time;durP1;ratioP1;P1;durP2;ratioP2;P2;SDS_P1;SDS_P2;PMS_P1;PMS_P2;Temp;Humidity;BMP_temperature;BMP_pressure;BME280_temperature;BME280_humidity;BME280_pressure;Samples;Min_cycle;Max_cycle;Signal;HPM_P1;HPM_P2
2020/12/16 00:01:17;;;;;;;6.20;4.90;;;;;;;8.64;94.41;98840.13;6080288;23;20253;-86
2020/12/16 00:03:44;;;;;;;6.53;5.32;;;;;;;8.63;94.45;98841.09;6086802;23;20560;-84
2020/12/16 00:06:10;;;;;;;6.25;5.65;;;;;;;8.63;94.51;98841.97;6104829;23;20158;-82
2020/12/16 00:08:37;;;;;;;6.90;6.20;;;;;;;8.60;94.38;98841.28;6069154;23;20213;-84
2020/12/16 00:11:03;;;;;;;8.23;6.50;;;;;;;8.57;94.69;98836.13;6083825;23;20214;-85
2020/12/16 00:13:29;;;;;;;7.30;6.28;;;;;;;8.55;94.49;98840.72;6079700;23;20210;-85
2020/12/16 00:15:56;;;;;;;6.18;5.28;;;;;;;8.53;94.69;98845.28;6116252;23;20247;-84
2020/12/16 00:18:22;;;;;;;6.10;5.10;;;;;;;8.56;94.73;98839.75;6084829;23;20206;-85
2020/12/16 00:20:48;;;;;;;5.95;5.15;;;;;;;8.59;94.76;98834.19;6083671;23;20210;-84
2020/12/16 00:23:18;;;;;;;5.75;5.25;;;;;;;8.61;94.56;98830.47;6081961;23;20656;-84
2020/12/16 00:25:45;;;;;;;7.00;5.85;;;;;;;8.62;94.63;98837.53;6110439;23;20217;-86
2020/12/16 00:28:11;;;;;;;6.95;5.90;;;;;;;8.57;94.28;98837.00;6108602;23;20612;-83
2020/12/16 00:30:38;;;;;;;7.03;6.32;;;;;;;8.73;94.00;98834.19;6113734;23;20183;-86
2020/12/16 00:33:04;;;;;;;5.97;5.38;;;;;;;8.62;93.71;98831.34;6090326;23;20262;-84
2020/12/16 00:35:31;;;;;;;6.95;6.07;;;;;;;8.58;93.60;98832.47;6095517;23;20194;-83
2020/12/16 00:37:59;;;;;;;6.28;5.65;;;;;;;8.51;93.65;98832.00;6093576;23;20293;-83
2020/12/16 00:40:31;;;;;;;6.47;5.78;;;;;;;8.44;93.60;98827.13;6106600;23;20210;-83
2020/12/16 00:42:57;;;;;;;6.35;5.72;;;;;;;8.35;93.68;98836.56;6117202;23;20175;-85
2020/12/16 00:45:24;;;;;;;8.05;5.53;;;;;;;8.29;93.88;98841.47;6088780;23;20221;-86
2020/12/16 00:47:50;;;;;;;12.23;5.30;;;;;;;8.22;93.91;98835.59;6086143;23;20260;-85
2020/12/16 00:50:21;;;;;;;5.82;5.03;;;;;;;8.14;93.74;98836.97;6080617;23;20235;-85
2020/12/16 00:53:00;;;;;;;5.72;4.10;;;;;;;8.06;93.79;98845.50;6088554;23;20210;-85
2020/12/16 00:55:32;;;;;;;5.63;4.65;;;;;;;8.09;93.99;98845.31;6110574;23;20230;-85
2020/12/16 00:57:58;;;;;;;11.38;8.68;;;;;;;8.13;94.16;98849.53;6121069;23;20201;-84
2020/12/16 01:04:20;;;;;;;6.13;4.85;;;;;;;8.33;93.95;98859.06;5994240;23;20212;-84
2020/12/16 01:06:47;;;;;;;5.85;4.45;;;;;;;8.29;93.49;98860.22;6093516;23;20163;-86
2020/12/16 01:09:16;;;;;;;6.20;5.18;;;;;;;8.35;93.38;98854.50;6096583;23;20206;-83
2020/12/16 01:11:45;;;;;;;5.07;4.57;;;;;;;8.46;93.09;98860.03;6098529;23;20213;-82
2020/12/16 01:14:11;;;;;;;6.15;4.97;;;;;;;8.54;92.78;98865.81;6114493;23;20668;-85
2020/12/16 01:16:38;;;;;;;5.90;5.18;;;;;;;8.51;91.99;98863.28;6106409;23;20217;-85
2020/12/16 01:19:10;;;;;;;4.93;4.47;;;;;;;8.58;91.97;98864.63;6086759;23;20174;-85
2020/12/16 01:21:42;;;;;;;4.95;4.35;;;;;;;8.61;91.74;98864.47;6098180;23;20163;-84
2020/12/16 01:24:09;;;;;;;6.55;4.43;;;;;;;8.65;91.43;98853.44;5874707;23;20215;-84
2020/12/16 01:26:50;;;;;;;6.25;5.25;;;;;;;8.57;91.24;98854.88;6106990;23;20210;-87
2020/12/16 01:29:49;;;;;;;6.68;5.40;;;;;;;8.67;91.11;98858.72;6085189;23;20206;-85
2020/12/16 01:32:44;;;;;;;6.85;5.93;;;;;;;8.66;90.78;98873.94;6085407;23;20281;-85
2020/12/16 01:35:11;;;;;;;6.85;4.80;;;;;;;8.61;90.25;98875.19;6082823;23;20202;-85
2020/12/16 01:38:04;;;;;;;5.32;4.82;;;;;;;8.66;90.27;98883.78;6046631;23;20251;-85
2020/12/16 01:41:37;;;;;;;9.77;7.43;;;;;;;8.68;90.16;98885.41;6003088;23;20224;-82
2020/12/16 01:44:28;;;;;;;10.90;6.80;;;;;;;8.73;89.49;98894.03;6037051;23;20215;-85
2020/12/16 01:47:00;;;;;;;11.38;7.30;;;;;;;8.76;89.05;98895.66;6131779;23;20204;-82
2020/12/16 01:49:35;;;;;;;8.57;6.93;;;;;;;8.77;88.60;98898.25;6131151;23;20188;-81
2020/12/16 01:52:06;;;;;;;7.63;6.00;;;;;;;8.82;88.23;98896.13;6155227;23;20221;-84
2020/12/16 01:54:44;;;;;;;5.85;4.53;;;;;;;8.86;87.88;98902.19;6138736;23;20193;-85
2020/12/16 01:57:18;;;;;;;5.25;4.20;;;;;;;8.86;87.83;98897.69;6127483;23;20209;-85
2020/12/16 01:59:53;;;;;;;6.10;4.78;;;;;;;8.81;87.89;98898.94;6133781;23;20391;-85
2020/12/16 02:02:51;;;;;;;5.05;4.10;;;;;;;8.75;88.04;98902.84;6137108;23;20214;-84
2020/12/16 02:05:29;;;;;;;6.55;5.10;;;;;;;8.75;87.93;98912.72;6110704;23;20205;-86
2020/12/16 02:08:04;;;;;;;5.30;4.78;;;;;;;8.86;87.83;98918.28;6136567;23;20215;-84
2020/12/16 02:10:33;;;;;;;6.75;4.95;;;;;;;8.79;87.75;98917.78;6109276;23;20242;-83
2020/12/16 02:12:59;;;;;;;5.63;5.03;;;;;;;8.81;87.94;98931.09;6107679;23;20626;-84
2020/12/16 02:15:26;;;;;;;6.00;4.60;;;;;;;8.75;88.17;98926.13;6085567;23;20577;-84
2020/12/16 02:17:53;;;;;;;5.43;4.93;;;;;;;8.83;88.55;98919.31;6084286;23;20285;-83
2020/12/16 02:20:20;;;;;;;7.40;5.57;;;;;;;8.88;87.75;98911.84;6107574;23;20719;-84
2020/12/16 02:22:52;;;;;;;6.97;5.20;;;;;;;9.00;87.59;98913.75;6132831;23;20511;-84
2020/12/16 02:25:21;;;;;;;7.45;5.63;;;;;;;8.97;87.38;98913.09;6093518;23;20278;-82
2020/12/16 02:27:59;;;;;;;7.28;5.93;;;;;;;8.99;88.04;98909.34;6093997;23;20186;-85
2020/12/16 02:30:30;;;;;;;5.78;5.15;;;;;;;9.03;88.02;98910.03;6112953;23;20167;-83
2020/12/16 02:33:32;;;;;;;12.30;5.72;;;;;;;9.06;88.27;98917.91;6082493;23;20730;-84
2020/12/16 02:36:15;;;;;;;5.82;5.15;;;;;;;9.11;88.35;98913.06;6107294;23;20207;-84
2020/12/16 02:39:03;;;;;;;6.30;5.40;;;;;;;9.18;88.49;98906.41;6111168;23;20235;-85
2020/12/16 02:41:58;;;;;;;10.38;7.22;;;;;;;9.20;89.03;98909.84;6107657;23;20211;-85
2020/12/16 02:44:25;;;;;;;10.38;6.65;;;;;;;9.18;89.45;98919.81;6084470;23;20234;-85
2020/12/16 02:47:00;;;;;;;10.35;6.20;;;;;;;9.24;89.48;98920.25;6085389;23;20211;-84
2020/12/16 02:49:29;;;;;;;8.05;6.35;;;;;;;9.29;89.51;98922.66;6087816;23;20598;-84
2020/12/16 02:51:58;;;;;;;11.48;7.05;;;;;;;9.29;89.34;98923.53;6099496;23;20171;-83
2020/12/16 02:54:25;;;;;;;16.45;9.30;;;;;;;9.37;89.20;98929.25;6101294;23;20282;-82
2020/12/16 02:57:13;;;;;;;21.27;14.63;;;;;;;9.38;88.56;98928.28;6102548;23;20190;-83
2020/12/16 02:59:54;;;;;;;34.30;19.23;;;;;;;9.43;88.15;98915.44;6094824;23;20235;-82
2020/12/16 03:02:41;;;;;;;21.30;11.98;;;;;;;9.41;87.76;98914.69;6122364;23;20190;-83
2020/12/16 03:05:44;;;;;;;15.18;8.98;;;;;;;9.43;87.60;98910.09;6068913;23;20334;-82
2020/12/16 03:08:21;;;;;;;19.25;9.60;;;;;;;9.50;87.51;98910.56;6112575;23;20210;-82
2020/12/16 03:10:55;;;;;;;20.55;10.38;;;;;;;9.52;88.03;98908.63;6091395;23;20196;-83
2020/12/16 03:13:21;;;;;;;11.13;7.80;;;;;;;9.49;88.51;98909.69;6093391;23;20257;-85
2020/12/16 03:15:48;;;;;;;9.90;5.95;;;;;;;9.43;88.99;98910.09;6101644;23;20175;-81
2020/12/16 03:18:16;;;;;;;11.00;6.47;;;;;;;9.37;89.26;98902.41;6090972;23;20198;-82
2020/12/16 03:20:44;;;;;;;9.43;6.70;;;;;;;9.38;89.83;98906.81;6087786;23;20202;-84
2020/12/16 03:29:17;;;;;;;10.10;7.60;;;;;;;9.32;90.10;98893.78;6090823;23;20206;-81
2020/12/16 03:33:02;;;;;;;10.00;6.38;;;;;;;9.31;90.27;98894.75;6003820;23;20214;-84
2020/12/16 03:41:10;;;;;;;;;;;;;;;;;;;;;
2020/12/16 03:44:34;;;;;;;13.55;8.70;;;;;;;9.34;90.20;98901.75;6075843;23;20217;-82
2020/12/16 03:47:31;;;;;;;11.13;6.82;;;;;;;9.34;90.18;98899.06;6038016;23;20206;-82
2020/12/16 03:50:01;;;;;;;13.82;7.70;;;;;;;9.33;90.18;98911.63;6142675;23;20202;-83
2020/12/16 03:52:33;;;;;;;14.10;8.00;;;;;;;9.39;90.43;98907.69;6152027;23;20185;-83
2020/12/16 03:55:13;;;;;;;10.00;7.07;;;;;;;9.39;90.21;98913.06;6152962;23;20186;-83
2020/12/16 03:57:50;;;;;;;9.98;6.78;;;;;;;9.37;90.09;98910.47;6121728;23;20177;-82
2020/12/16 04:00:25;;;;;;;9.07;6.45;;;;;;;9.36;90.37;98915.94;6129369;23;20267;-83
2020/12/16 04:02:57;;;;;;;11.50;6.32;;;;;;;9.34;90.12;98916.06;6123193;23;20195;-82
2020/12/16 04:05:41;;;;;;;10.15;6.05;;;;;;;9.28;90.52;98920.94;6153544;23;20208;-80
2020/12/16 04:08:07;;;;;;;7.68;5.35;;;;;;;9.30;90.61;98919.00;6155897;23;20245;-82
2020/12/16 04:10:53;;;;;;;6.82;5.03;;;;;;;9.35;90.35;98924.94;6184017;23;20208;-83
2020/12/16 04:13:19;;;;;;;9.73;5.88;;;;;;;9.34;90.34;98928.59;6127635;23;20214;-83
2020/12/16 04:15:45;;;;;;;8.40;5.57;;;;;;;9.40;90.32;98930.88;6130860;23;20174;-83
2020/12/16 04:18:13;;;;;;;8.18;5.68;;;;;;;9.41;90.13;98932.59;6127918;23;20210;-82
2020/12/16 04:20:39;;;;;;;7.03;5.18;;;;;;;9.41;90.17;98930.78;6127646;23;20201;-83
2020/12/16 04:23:05;;;;;;;8.52;6.18;;;;;;;9.41;90.15;98932.59;6153253;23;20258;-84
2020/12/16 04:25:34;;;;;;;8.07;6.38;;;;;;;9.43;90.12;98936.91;6127390;23;20209;-83
2020/12/16 04:28:02;;;;;;;9.00;6.35;;;;;;;9.45;90.01;98936.81;6127698;23;20169;-82
2020/12/16 04:30:29;;;;;;;7.38;5.78;;;;;;;9.48;90.12;98934.81;6132510;23;20169;-83
2020/12/16 04:32:59;;;;;;;8.57;6.85;;;;;;;9.49;90.28;98935.66;6150817;23;20190;-84
2020/12/16 04:35:28;;;;;;;7.90;6.15;;;;;;;9.49;90.32;98933.84;6124801;23;20229;-83
2020/12/16 04:37:57;;;;;;;9.25;6.68;;;;;;;9.49;90.62;98933.84;6149443;23;20238;-83
2020/12/16 04:40:24;;;;;;;9.18;5.72;;;;;;;9.49;90.94;98938.34;6124160;23;20201;-84
2020/12/16 04:43:00;;;;;;;6.85;6.05;;;;;;;9.48;91.22;98941.97;6127779;23;20184;-84
2020/12/16 04:45:28;;;;;;;7.60;6.68;;;;;;;9.48;91.40;98934.81;6123515;23;20214;-85
2020/12/16 04:47:57;;;;;;;9.25;6.65;;;;;;;9.45;91.55;98942.19;6123275;23;20210;-85
2020/12/16 04:50:25;;;;;;;7.38;6.43;;;;;;;9.47;91.52;98938.44;6152390;23;20233;-83
2020/12/16 04:53:01;;;;;;;9.07;7.13;;;;;;;9.47;91.52;98934.91;6142345;23;20220;-84
2020/12/16 04:55:57;;;;;;;7.38;5.75;;;;;;;9.38;91.92;98930.97;6117840;23;20221;-85
2020/12/16 04:58:43;;;;;;;10.63;6.68;;;;;;;9.35;91.76;98928.50;6136820;23;20216;-85
2020/12/16 05:01:10;;;;;;;8.90;7.25;;;;;;;9.29;92.11;98925.34;6136897;23;20254;-84
2020/12/16 05:03:42;;;;;;;10.50;7.30;;;;;;;9.31;92.49;98931.47;6122063;23;20190;-84
2020/12/16 05:06:39;;;;;;;8.07;6.35;;;;;;;9.31;92.52;98934.16;6121069;23;20217;-84
2020/12/16 05:09:08;;;;;;;7.13;4.72;;;;;;;9.33;92.53;98929.56;6117752;23;20217;-84
2020/12/16 05:11:49;;;;;;;7.68;6.05;;;;;;;9.29;92.51;98936.06;6113708;23;20208;-85
2020/12/16 05:14:18;;;;;;;8.27;5.88;;;;;;;9.32;92.71;98939.41;6133341;23;20293;-85
2020/12/16 05:16:59;;;;;;;8.85;6.10;;;;;;;9.33;92.82;98937.59;6117606;23;20253;-82
2020/12/16 05:19:39;;;;;;;7.57;6.00;;;;;;;9.36;92.98;98930.22;6131086;23;20196;-83
2020/12/16 05:22:12;;;;;;;9.57;6.60;;;;;;;9.34;92.69;98931.28;6130294;23;20158;-84
2020/12/16 05:24:39;;;;;;;6.65;5.93;;;;;;;9.33;92.61;98925.03;6135547;23;20190;-85
2020/12/16 05:27:08;;;;;;;9.05;6.30;;;;;;;9.34;92.77;98925.91;6107631;23;20298;-85
2020/12/16 05:29:36;;;;;;;7.45;5.85;;;;;;;9.29;92.56;98928.88;6110466;23;20202;-85
2020/12/16 05:32:25;;;;;;;7.20;6.15;;;;;;;9.32;92.99;98923.31;6112876;23;20214;-85
2020/12/16 05:34:52;;;;;;;8.13;6.60;;;;;;;9.29;92.83;98920.84;6121719;23;20210;-85
2020/12/16 05:37:36;;;;;;;8.48;6.47;;;;;;;9.25;92.59;98913.09;6139792;23;20258;-85
2020/12/16 05:40:06;;;;;;;8.80;6.85;;;;;;;9.21;92.53;98911.56;6135824;23;20173;-85
2020/12/16 05:42:33;;;;;;;7.40;6.60;;;;;;;9.13;92.92;98912.03;6139022;23;20197;-84
2020/12/16 05:45:12;;;;;;;12.10;7.22;;;;;;;9.14;92.92;98908.38;6135481;23;20678;-86
2020/12/16 05:47:42;;;;;;;12.38;7.90;;;;;;;9.15;93.12;98909.25;6116613;23;20257;-83
2020/12/16 05:50:16;;;;;;;9.80;7.00;;;;;;;9.16;93.22;98914.53;6123558;23;20671;-84
2020/12/16 05:52:47;;;;;;;9.95;7.53;;;;;;;9.21;93.38;98914.22;6106481;23;20205;-84
2020/12/16 05:55:26;;;;;;;10.75;7.70;;;;;;;9.25;93.29;98921.13;6104964;23;20272;-84
2020/12/16 05:58:07;;;;;;;12.80;8.80;;;;;;;9.34;92.99;98925.91;6124386;23;20177;-84
2020/12/16 06:00:49;;;;;;;14.32;9.55;;;;;;;9.30;92.99;98924.38;6152325;23;20201;-83
2020/12/16 06:03:21;;;;;;;13.63;8.70;;;;;;;9.30;92.78;98927.06;6106281;23;20225;-84
2020/12/16 06:05:55;;;;;;;16.38;11.07;;;;;;;9.28;92.51;98937.03;6105225;23;20265;-84
2020/12/16 06:08:23;;;;;;;17.00;10.25;;;;;;;9.32;92.11;98935.88;6100830;23;20206;-84
2020/12/16 06:10:50;;;;;;;15.45;10.07;;;;;;;9.37;91.79;98929.25;6128150;23;20266;-85
2020/12/16 06:13:18;;;;;;;10.57;7.35;;;;;;;9.37;91.39;98936.44;6129506;23;20600;-84
2020/12/16 06:15:57;;;;;;;11.13;8.35;;;;;;;9.33;91.33;98940.28;6109637;23;20710;-85
2020/12/16 06:18:29;;;;;;;14.95;8.75;;;;;;;9.37;91.53;98936.44;6102868;23;20285;-84
2020/12/16 06:20:56;;;;;;;14.70;11.20;;;;;;;9.33;91.30;98941.13;6111178;23;20289;-85
2020/12/16 06:23:28;;;;;;;13.18;8.65;;;;;;;9.32;91.43;98943.94;6105422;23;20727;-84
2020/12/16 06:26:19;;;;;;;10.98;7.65;;;;;;;9.33;91.55;98941.13;6107993;23;20212;-85
2020/12/16 06:28:46;;;;;;;11.05;7.95;;;;;;;9.33;91.60;98945.66;6106029;23;20210;-85
2020/12/16 06:31:28;;;;;;;12.55;7.90;;;;;;;9.36;91.52;98954.38;6153782;23;20170;-85
2020/12/16 06:34:06;;;;;;;13.63;8.98;;;;;;;9.39;91.36;98954.16;6110219;23;20632;-84
2020/12/16 06:36:37;;;;;;;14.65;10.52;;;;;;;9.43;91.37;98963.75;6119011;23;20216;-85
2020/12/16 06:39:15;;;;;;;15.95;11.48;;;;;;;9.44;90.85;98960.09;6113087;23;20270;-85
2020/12/16 06:41:51;;;;;;;13.90;10.98;;;;;;;9.44;91.00;98965.47;6110811;23;20666;-84
2020/12/16 06:44:17;;;;;;;11.85;9.55;;;;;;;9.48;90.89;98966.13;6111028;23;20216;-84
2020/12/16 06:46:48;;;;;;;10.60;7.95;;;;;;;9.52;90.50;98967.69;6135364;23;20205;-85
2020/12/16 06:49:23;;;;;;;12.20;9.10;;;;;;;9.53;90.53;98972.09;6108897;23;20222;-85
2020/12/16 06:51:56;;;;;;;9.10;7.82;;;;;;;9.51;90.52;98976.69;6111599;23;20162;-85
2020/12/16 06:54:38;;;;;;;12.27;7.80;;;;;;;9.55;90.47;98975.50;6110713;23;20229;-85
2020/12/16 06:57:09;;;;;;;12.35;9.10;;;;;;;9.50;90.16;98969.59;6148109;23;20194;-80
2020/12/16 06:59:49;;;;;;;10.25;7.60;;;;;;;9.54;90.21;98968.44;6154289;23;20224;-83
2020/12/16 07:02:35;;;;;;;12.07;8.68;;;;;;;9.59;89.97;98979.75;6122737;23;20205;-84
2020/12/16 07:05:05;;;;;;;13.63;9.10;;;;;;;9.56;89.69;98975.44;6108176;23;20209;-83
2020/12/16 07:07:43;;;;;;;19.50;13.45;;;;;;;9.52;89.68;98976.56;6144196;23;20561;-85
2020/12/16 07:10:35;;;;;;;12.73;9.80;;;;;;;9.49;89.86;98984.84;6133445;23;20236;-85
2020/12/16 07:13:13;;;;;;;15.27;8.80;;;;;;;9.49;90.21;98981.28;6109391;23;20249;-84
2020/12/16 07:15:56;;;;;;;12.05;9.43;;;;;;;9.58;90.09;98983.41;6136344;23;20165;-84
2020/12/16 07:18:32;;;;;;;14.40;11.13;;;;;;;9.55;90.21;98984.44;6133431;23;20670;-84
2020/12/16 07:20:59;;;;;;;13.70;11.18;;;;;;;9.47;90.18;98986.75;6108382;23;20213;-84
2020/12/16 07:23:45;;;;;;;13.73;11.70;;;;;;;9.56;90.03;98975.44;6136092;23;20210;-85
2020/12/16 07:26:18;;;;;;;13.80;10.77;;;;;;;9.52;89.81;98989.16;6117160;23;20202;-82
2020/12/16 07:28:44;;;;;;;13.57;10.68;;;;;;;9.55;89.85;98992.50;6129142;23;20206;-84
2020/12/16 07:31:11;;;;;;;14.32;10.60;;;;;;;9.53;89.75;98985.50;6116057;23;20220;-86
2020/12/16 07:33:38;;;;;;;10.13;8.30;;;;;;;9.58;89.59;98991.44;6110678;23;20197;-85
2020/12/16 07:36:05;;;;;;;12.05;8.70;;;;;;;9.55;89.51;98988.94;6115078;23;20208;-85
2020/12/16 07:38:32;;;;;;;10.52;7.70;;;;;;;9.50;89.37;98991.91;6161906;23;20213;-85
2020/12/16 07:40:59;;;;;;;7.70;6.50;;;;;;;9.51;89.42;98984.75;6137302;23;20209;-84
2020/12/16 07:43:25;;;;;;;12.20;7.85;;;;;;;9.50;89.27;98988.41;6164221;23;20208;-84
2020/12/16 07:46:05;;;;;;;9.68;7.18;;;;;;;9.55;89.56;98980.88;6111529;23;20171;-84
2020/12/16 07:48:34;;;;;;;10.52;7.97;;;;;;;9.52;89.78;98984.63;6154884;23;20213;-85
2020/12/16 07:51:06;;;;;;;11.40;8.27;;;;;;;9.57;89.58;98992.41;6107240;23;20209;-84
2020/12/16 07:53:34;;;;;;;11.77;9.13;;;;;;;9.67;89.66;98990.84;6129682;23;20221;-85
2020/12/16 07:56:02;;;;;;;11.70;9.30;;;;;;;9.67;89.49;98986.34;6104807;23;20210;-85
2020/12/16 07:58:40;;;;;;;13.00;9.30;;;;;;;9.68;89.51;98985.38;6111345;23;20217;-83
2020/12/16 08:06:22;;;;;;;15.25;11.27;;;;;;;9.88;88.85;98981.41;5986457;23;20604;-85
2020/12/16 08:10:48;;;;;;;14.20;11.07;;;;;;;10.25;86.99;98991.47;6032073;23;20221;-85
2020/12/16 08:13:37;;;;;;;27.75;13.60;;;;;;;10.32;86.53;98985.59;5923196;23;20292;-83
2020/12/16 08:16:18;;;;;;;14.07;10.55;;;;;;;10.39;86.46;98988.72;6093207;23;20268;-85
2020/12/16 08:18:48;;;;;;;17.77;10.77;;;;;;;10.40;86.03;98990.47;6097378;23;20177;-84
2020/12/16 08:21:19;;;;;;;16.02;11.55;;;;;;;10.41;86.25;98987.66;6074999;23;20221;-85
2020/12/16 08:23:46;;;;;;;22.17;11.07;;;;;;;10.51;85.41;99001.34;6130567;23;20249;-84
2020/12/16 08:26:37;;;;;;;14.93;11.88;;;;;;;10.39;85.94;99003.03;6129565;23;20217;-82
2020/12/16 08:29:04;;;;;;;32.08;21.90;;;;;;;10.33;86.50;98999.88;6154580;23;20189;-84
2020/12/16 08:31:34;;;;;;;17.70;12.35;;;;;;;10.37;86.75;99001.41;6049301;23;20205;-85
2020/12/16 08:34:11;;;;;;;18.05;13.20;;;;;;;10.25;87.02;99007.59;6102610;23;20306;-84
2020/12/16 08:36:42;;;;;;;24.10;13.07;;;;;;;10.28;86.95;99004.72;6116275;23;20223;-84
2020/12/16 08:39:09;;;;;;;32.72;14.95;;;;;;;10.24;87.12;99003.19;6120631;23;20202;-85
2020/12/16 08:41:45;;;;;;;18.13;12.52;;;;;;;10.33;87.13;99000.75;6120422;23;20237;-85
2020/12/16 08:44:25;;;;;;;14.77;12.68;;;;;;;10.34;87.12;99013.22;6046988;23;20213;-85
2020/12/16 08:48:15;;;;;;;15.48;12.32;;;;;;;10.36;86.75;99000.56;6067135;23;20293;-85
2020/12/16 08:50:40;;;;;;;16.02;12.75;;;;;;;10.34;86.50;98990.88;6077631;23;20269;-85
2020/12/16 08:53:28;;;;;;;14.20;12.25;;;;;;;10.42;86.58;98997.44;6039936;23;20203;-84
2020/12/16 08:55:57;;;;;;;15.43;12.43;;;;;;;10.43;86.88;99001.00;6117451;23;20210;-86
2020/12/16 08:58:23;;;;;;;15.63;12.68;;;;;;;10.49;86.46;98996.09;6117171;23;20253;-87
2020/12/16 09:00:56;;;;;;;14.55;12.02;;;;;;;10.48;86.45;98994.34;6115500;23;20197;-84
2020/12/16 09:03:23;;;;;;;14.93;13.02;;;;;;;10.66;86.25;98989.59;6104048;23;20232;-85
2020/12/16 09:06:00;;;;;;;13.98;11.55;;;;;;;10.98;84.48;98983.69;6131012;23;20803;-85
2020/12/16 09:08:28;;;;;;;19.83;13.65;;;;;;;11.01;84.96;98991.56;6107305;23;20229;-85
2020/12/16 09:10:58;;;;;;;17.75;14.00;;;;;;;11.22;84.86;98995.44;6132810;23;20248;-85
2020/12/16 09:13:29;;;;;;;15.32;11.88;;;;;;;11.29;84.03;98995.84;6111163;23;20204;-85
2020/12/16 09:15:59;;;;;;;13.88;11.25;;;;;;;11.34;82.91;98991.00;6127011;23;20200;-86
2020/12/16 09:18:28;;;;;;;14.93;11.88;;;;;;;11.41;82.27;98995.88;6131860;23;20186;-84
2020/12/16 09:20:59;;;;;;;14.52;12.95;;;;;;;11.49;82.08;98992.63;6123038;23;20232;-85
2020/12/16 09:23:27;;;;;;;16.40;13.48;;;;;;;11.54;81.50;98996.72;6109001;23;20209;-86
2020/12/16 09:25:59;;;;;;;19.27;15.45;;;;;;;11.43;80.90;98995.75;6134717;23;20234;-84
2020/12/16 09:28:42;;;;;;;19.48;16.73;;;;;;;11.44;81.27;98994.78;6110984;23;20197;-86
2020/12/16 09:31:17;;;;;;;15.55;13.82;;;;;;;11.43;81.31;98995.75;6108795;23;20158;-85
2020/12/16 09:34:13;;;;;;;16.80;14.52;;;;;;;11.46;81.67;98998.22;6112208;23;20190;-85
2020/12/16 09:36:42;;;;;;;13.60;12.10;;;;;;;11.60;81.45;98998.13;6091611;23;20206;-84
2020/12/16 09:39:15;;;;;;;13.77;11.90;;;;;;;11.68;81.14;98995.75;6106555;23;20216;-84
2020/12/16 09:41:51;;;;;;;12.88;11.52;;;;;;;11.78;80.81;98994.09;6110463;23;20205;-85
2020/12/16 09:44:26;;;;;;;11.45;10.00;;;;;;;11.66;80.52;98986.91;6109326;23;20209;-86
2020/12/16 09:46:52;;;;;;;12.23;10.93;;;;;;;11.53;80.91;98991.44;6132638;23;20678;-83
2020/12/16 09:49:24;;;;;;;12.68;10.50;;;;;;;11.45;81.60;98988.44;6112620;23;20555;-85
2020/12/16 09:51:51;;;;;;;11.93;10.38;;;;;;;11.27;82.00;98995.97;6112368;23;20225;-84
2020/12/16 09:54:27;;;;;;;11.55;10.07;;;;;;;11.28;81.96;98992.31;6108819;23;20210;-84
2020/12/16 09:56:53;;;;;;;13.40;10.25;;;;;;;11.21;82.83;98998.22;6065636;23;20206;-85
2020/12/16 09:59:20;;;;;;;11.27;10.10;;;;;;;11.15;83.09;98993.28;6105907;23;20210;-84
2020/12/16 10:01:50;;;;;;;12.95;11.27;;;;;;;11.12;83.36;98988.13;6107298;23;20201;-85
2020/12/16 10:04:17;;;;;;;13.95;9.75;;;;;;;11.08;84.06;98978.53;6106400;23;20216;-85
2020/12/16 10:06:48;;;;;;;15.93;9.88;;;;;;;11.05;84.29;98978.75;6110137;23;20162;-84
2020/12/16 10:09:14;;;;;;;15.57;10.65;;;;;;;10.99;84.77;98968.44;6143123;23;20194;-83
2020/12/16 10:11:45;;;;;;;12.07;9.45;;;;;;;11.04;84.34;98966.28;6155935;23;20185;-81
2020/12/16 10:14:11;;;;;;;13.27;9.85;;;;;;;11.14;84.10;98968.22;6153715;23;20210;-83
2020/12/16 10:16:52;;;;;;;12.82;9.82;;;;;;;11.23;83.73;98966.72;6129816;23;20256;-82
2020/12/16 10:19:18;;;;;;;13.02;10.23;;;;;;;11.27;83.75;98965.50;6116497;23;20185;-84
2020/12/16 10:21:47;;;;;;;12.73;10.77;;;;;;;11.34;83.63;98972.16;6135987;23;20234;-84
2020/12/16 10:24:16;;;;;;;8.60;7.80;;;;;;;11.37;82.76;98961.19;6105970;23;20528;-85
2020/12/16 10:26:48;;;;;;;9.00;8.10;;;;;;;11.29;83.13;98959.03;6105637;23;20799;-84
2020/12/16 10:29:19;;;;;;;10.00;8.20;;;;;;;11.28;83.67;98949.25;6104238;23;20210;-83
2020/12/16 10:31:49;;;;;;;11.02;9.43;;;;;;;11.36;83.61;98948.72;6104375;23;20210;-84
2020/12/16 10:34:17;;;;;;;9.15;8.25;;;;;;;11.51;83.09;98953.88;6105770;23;20252;-83
2020/12/16 10:36:48;;;;;;;9.63;8.73;;;;;;;11.52;83.24;98955.59;6113324;23;20194;-84
2020/12/16 10:39:14;;;;;;;9.48;8.57;;;;;;;11.63;83.07;98962.91;6105886;23;20220;-84
2020/12/16 10:41:43;;;;;;;11.20;9.07;;;;;;;11.75;83.00;98964.72;6100079;23;20300;-84
2020/12/16 10:44:10;;;;;;;8.15;7.32;;;;;;;11.71;82.42;98957.81;6104913;23;20293;-85
2020/12/16 10:46:36;;;;;;;10.32;7.68;;;;;;;11.77;82.36;98962.75;6107044;23;20202;-83
2020/12/16 10:49:02;;;;;;;7.50;6.30;;;;;;;11.87;82.32;98959.28;6130615;23;20166;-83
2020/12/16 10:51:30;;;;;;;10.38;8.43;;;;;;;12.08;81.41;98951.44;6112483;23;20902;-85
2020/12/16 10:53:56;;;;;;;10.82;9.35;;;;;;;12.32;81.57;98945.06;6116081;23;20220;-85
2020/12/16 10:56:23;;;;;;;7.32;6.63;;;;;;;12.52;80.29;98947.97;6116337;23;20284;-84
2020/12/16 10:58:50;;;;;;;8.27;6.90;;;;;;;12.91;78.87;98944.91;6109674;23;20216;-82
2020/12/16 11:01:16;;;;;;;6.30;5.70;;;;;;;13.21;77.46;98930.88;6110781;23;20166;-86
2020/12/16 11:03:43;;;;;;;8.45;7.65;;;;;;;13.59;76.20;98932.25;6124278;23;20194;-84
2020/12/16 11:06:09;;;;;;;8.38;7.40;;;;;;;13.80;74.85;98929.59;6107742;23;20536;-85
2020/12/16 11:08:35;;;;;;;4.30;3.90;;;;;;;13.97;70.24;98931.81;6131636;23;20206;-85
2020/12/16 11:11:01;;;;;;;5.88;3.30;;;;;;;13.79;70.71;98936.88;6138989;23;20189;-83
2020/12/16 11:13:27;;;;;;;5.18;3.92;;;;;;;13.72;72.20;98930.25;6127690;23;20217;-83
2020/12/16 11:15:54;;;;;;;6.45;5.68;;;;;;;13.86;73.15;98934.50;6112779;23;20225;-85
2020/12/16 11:18:20;;;;;;;7.05;5.13;;;;;;;13.85;71.92;98928.28;6115543;23;20202;-84
2020/12/16 11:20:46;;;;;;;16.35;10.25;;;;;;;13.85;71.37;98925.56;6124453;23;20194;-82
2020/12/16 11:23:13;;;;;;;4.60;3.35;;;;;;;13.87;70.37;98926.28;6149840;23;20234;-82
2020/12/16 11:25:39;;;;;;;6.28;4.90;;;;;;;13.98;70.31;98923.56;6115869;23;20642;-84
2020/12/16 11:28:05;;;;;;;4.97;4.47;;;;;;;14.01;70.74;98917.91;6114392;23;20162;-84
2020/12/16 11:30:31;;;;;;;5.03;4.53;;;;;;;14.41;69.45;98913.59;6154799;23;20177;-82
2020/12/16 11:32:58;;;;;;;3.50;3.00;;;;;;;14.63;67.81;98915.34;6124919;23;20261;-83
2020/12/16 11:35:24;;;;;;;2.95;2.72;;;;;;;14.43;67.42;98913.47;6145471;23;20545;-83
2020/12/16 11:37:50;;;;;;;3.55;2.92;;;;;;;14.57;68.11;98910.47;6110627;23;20671;-85
2020/12/16 11:40:17;;;;;;;7.47;4.32;;;;;;;14.60;67.38;98911.06;6115232;23;20170;-85
2020/12/16 11:42:43;;;;;;;3.78;3.08;;;;;;;14.61;66.49;98918.22;6141233;23;20170;-83
2020/12/16 11:45:10;;;;;;;2.97;2.72;;;;;;;14.53;67.24;98909.88;6133834;23;20232;-84
2020/12/16 11:47:36;;;;;;;3.58;3.28;;;;;;;14.21;66.66;98914.41;6109726;23;20205;-85
2020/12/16 11:50:24;;;;;;;3.15;2.85;;;;;;;13.79;68.46;98911.69;6135962;23;20241;-85
2020/12/16 11:52:51;;;;;;;2.97;2.70;;;;;;;13.34;69.51;98904.59;6139033;23;20206;-83
2020/12/16 11:55:17;;;;;;;5.37;3.37;;;;;;;13.45;69.87;98908.16;6111721;23;20218;-83
2020/12/16 11:57:43;;;;;;;3.58;3.20;;;;;;;13.41;70.07;98901.31;6115677;23;20441;-83
2020/12/16 12:00:09;;;;;;;5.72;4.13;;;;;;;13.50;69.79;98907.81;6124441;23;20205;-82
2020/12/16 12:02:35;;;;;;;4.40;4.00;;;;;;;13.44;70.35;98909.13;6127770;23;20273;-81
2020/12/16 12:05:13;;;;;;;6.32;5.20;;;;;;;13.50;70.27;98911.34;6129860;23;20237;-79
2020/12/16 12:07:40;;;;;;;3.40;3.10;;;;;;;13.45;70.43;98908.16;6127838;23;20257;-81
2020/12/16 12:10:06;;;;;;;3.45;3.15;;;;;;;13.51;70.27;98902.25;6150558;23;20165;-81
2020/12/16 12:23:47;;;;;;;3.58;3.20;;;;;;;13.15;70.87;98897.13;6171731;23;20288;-82
2020/12/16 12:26:13;;;;;;;4.50;3.30;;;;;;;13.18;71.35;98896.03;6167310;23;20204;-83
2020/12/16 12:28:39;;;;;;;5.13;3.90;;;;;;;13.24;71.19;98890.97;6172508;23;20427;-83
2020/12/16 12:31:05;;;;;;;3.45;3.15;;;;;;;13.12;71.88;98894.66;6173570;23;20165;-82
2020/12/16 12:33:31;;;;;;;3.30;2.67;;;;;;;13.50;71.37;98891.59;6191039;23;20208;-82
2020/12/16 12:35:59;;;;;;;2.70;2.45;;;;;;;13.86;69.94;98897.56;6163847;23;20762;-82